createdAt,value
2018-06-02T00:00:08.292Z,5.55
2018-06-02T00:02:35.700Z,5.45
2018-06-02T00:05:03.245Z,5.35
2018-06-02T00:07:31.431Z,4.47
2018-06-02T00:09:58.897Z,5.82
2018-06-02T00:12:26.323Z,5.05
2018-06-02T00:14:53.838Z,5.60
2018-06-02T00:17:21.254Z,4.95
2018-06-02T00:19:48.772Z,4.75
2018-06-02T00:22:16.186Z,5.30
2018-06-02T00:24:43.600Z,5.85
2018-06-02T00:27:11.780Z,5.50
2018-06-02T00:29:39.997Z,5.15
2018-06-02T00:32:08.149Z,5.15
2018-06-02T00:34:36.337Z,4.80
2018-06-02T00:37:04.660Z,4.90
2018-06-02T00:39:32.829Z,4.90
2018-06-02T00:42:01.029Z,4.90
2018-06-02T00:44:28.454Z,5.20
2018-06-02T00:46:55.862Z,5.53
2018-06-02T00:49:23.282Z,4.93
2018-06-02T00:51:50.694Z,5.80
2018-06-02T00:54:30.558Z,4.80
2018-06-02T00:56:58.042Z,6.45
2018-06-02T00:59:25.507Z,5.62
2018-06-02T01:01:52.926Z,5.62
2018-06-02T01:04:20.341Z,6.47
2018-06-02T01:06:47.813Z,6.90
2018-06-02T01:09:15.233Z,6.32
2018-06-02T01:11:48.569Z,5.65
2018-06-02T01:14:16.748Z,6.00
2018-06-02T01:16:44.933Z,4.95
2018-06-02T01:19:12.344Z,6.30
2018-06-02T01:21:39.765Z,6.10
2018-06-02T01:24:07.174Z,6.03
2018-06-02T01:26:34.752Z,5.82
2018-06-02T01:29:02.910Z,6.10
2018-06-02T01:31:31.089Z,5.22
2018-06-02T01:33:58.500Z,5.30
2018-06-02T01:36:26.068Z,6.12
2018-06-02T01:38:54.249Z,5.90
2018-06-02T01:41:21.669Z,5.70
2018-06-02T01:43:49.091Z,5.00
2018-06-02T01:46:16.505Z,5.18
2018-06-02T01:48:43.917Z,5.20
2018-06-02T01:51:11.337Z,5.20
2018-06-02T01:53:38.744Z,5.00
2018-06-02T01:56:06.953Z,6.37
2018-06-02T01:58:34.364Z,5.30
2018-06-02T02:01:01.785Z,6.20
2018-06-02T02:03:29.261Z,7.10
2018-06-02T02:05:56.690Z,7.22
2018-06-02T02:08:24.205Z,7.40
2018-06-02T02:10:52.360Z,7.20
2018-06-02T02:13:20.579Z,7.25
2018-06-02T02:15:49.121Z,6.12
2018-06-02T02:18:16.537Z,6.57
2018-06-02T02:20:43.958Z,6.57
2018-06-02T02:23:11.375Z,6.60
2018-06-02T02:25:38.788Z,5.97
2018-06-02T02:28:06.199Z,6.35
2018-06-02T02:30:34.390Z,6.85
2018-06-02T02:33:01.809Z,6.90
2018-06-02T02:35:29.234Z,7.30
2018-06-02T02:37:56.715Z,6.97
2018-06-02T02:40:24.186Z,7.03
2018-06-02T02:42:52.344Z,7.03
2018-06-02T02:45:20.560Z,6.53
2018-06-02T02:47:48.746Z,6.30
2018-06-02T02:50:16.911Z,5.70
2018-06-02T02:52:45.120Z,6.18
2018-06-02T02:55:13.277Z,5.90
2018-06-02T02:57:41.457Z,6.72
2018-06-02T03:00:08.880Z,6.00
2018-06-02T03:02:36.298Z,6.90
2018-06-02T03:05:04.514Z,6.18
2018-06-02T03:07:31.976Z,6.95
2018-06-02T03:09:59.458Z,8.00
2018-06-02T03:12:26.886Z,7.47
2018-06-02T03:14:54.307Z,6.85
2018-06-02T03:17:21.733Z,6.80
2018-06-02T03:19:49.149Z,6.30
2018-06-02T03:22:16.606Z,6.78
2018-06-02T03:24:44.765Z,6.70
2018-06-02T03:27:12.972Z,6.32
2018-06-02T03:29:40.380Z,5.35
2018-06-02T03:32:07.800Z,5.68
2018-06-02T03:34:35.976Z,5.53
2018-06-02T03:37:04.184Z,5.95
2018-06-02T03:39:31.605Z,6.25
2018-06-02T03:41:59.130Z,7.30
2018-06-02T03:44:26.602Z,8.07
2018-06-02T03:46:54.029Z,7.10
2018-06-02T03:49:21.536Z,7.18
2018-06-02T03:51:48.971Z,7.25
2018-06-02T03:54:16.481Z,6.95
2018-06-02T03:56:43.903Z,6.03
2018-06-02T03:59:11.529Z,6.00
2018-06-02T04:01:39.697Z,6.57
2018-06-02T04:04:07.108Z,5.68
2018-06-02T04:06:34.529Z,6.00
2018-06-02T04:09:02.739Z,7.40
2018-06-02T04:11:30.149Z,6.90
2018-06-02T04:13:57.579Z,6.90
2018-06-02T04:16:26.577Z,6.10
2018-06-02T04:18:54.057Z,6.12
2018-06-02T04:21:21.469Z,5.50
2018-06-02T04:23:48.885Z,6.30
2018-06-02T04:26:16.671Z,6.57
2018-06-02T04:28:44.828Z,6.60
2018-06-02T04:31:13.025Z,6.85
2018-06-02T04:33:41.237Z,6.65
2018-06-02T04:36:08.750Z,7.62
2018-06-02T04:38:36.164Z,8.20
2018-06-02T04:41:03.648Z,7.95
2018-06-02T04:43:31.064Z,7.62
2018-06-02T04:45:58.684Z,6.78
2018-06-02T04:48:26.842Z,7.43
2018-06-02T04:50:55.029Z,7.75
2018-06-02T04:53:23.218Z,8.15
2018-06-02T04:55:51.429Z,7.43
2018-06-02T04:58:18.841Z,7.55
2018-06-02T05:00:46.256Z,7.62
2018-06-02T05:03:13.749Z,8.38
2018-06-02T05:05:41.924Z,7.00
2018-06-02T05:08:09.336Z,9.50
2018-06-02T05:10:36.869Z,7.45
2018-06-02T05:13:05.028Z,7.45
2018-06-02T05:15:33.246Z,7.57
2018-06-02T05:18:01.409Z,6.70
2018-06-02T05:20:29.592Z,8.18
2018-06-02T05:22:57.779Z,6.80
2018-06-02T05:25:25.990Z,7.43
2018-06-02T05:27:53.417Z,7.93
2018-06-02T05:30:20.824Z,6.68
2018-06-02T05:32:48.249Z,7.00
2018-06-02T05:35:15.784Z,7.45
2018-06-02T05:37:43.957Z,7.18
2018-06-02T05:40:11.394Z,7.15
2018-06-02T05:42:38.897Z,6.60
2018-06-02T05:45:06.366Z,6.35
2018-06-02T05:47:33.840Z,6.93
2018-06-02T05:50:02.002Z,7.22
2018-06-02T05:52:30.241Z,8.05
2018-06-02T05:54:57.632Z,6.60
2018-06-02T05:57:25.061Z,7.30
2018-06-02T05:59:52.528Z,8.60
2018-06-02T06:02:19.937Z,6.43
2018-06-02T06:04:47.352Z,6.75
2018-06-02T06:07:14.825Z,7.30
2018-06-02T06:09:43.141Z,6.43
2018-06-02T06:12:10.565Z,6.93
2018-06-02T06:14:38.773Z,5.93
2018-06-02T06:17:06.237Z,6.62
2018-06-02T06:19:33.772Z,6.85
2018-06-02T06:22:01.129Z,5.65
2018-06-02T06:24:28.652Z,7.20
2018-06-02T06:26:56.107Z,6.15
2018-06-02T06:29:23.506Z,6.25
2018-06-02T06:31:50.978Z,6.82
2018-06-02T06:34:18.396Z,5.55
2018-06-02T06:36:45.914Z,7.68
2018-06-02T06:39:13.378Z,6.43
2018-06-02T06:41:40.855Z,6.20
2018-06-02T06:44:08.259Z,6.87
2018-06-02T06:46:35.724Z,6.50
2018-06-02T06:49:03.089Z,7.03
2018-06-02T06:51:30.528Z,6.00
2018-06-02T06:53:58.001Z,6.10
2018-06-02T06:56:25.412Z,7.90
2018-06-02T06:58:52.933Z,6.30
2018-06-02T07:01:20.511Z,5.93
2018-06-02T07:03:48.693Z,6.70
2018-06-02T07:06:16.165Z,7.18
2018-06-02T07:08:43.585Z,7.80
2018-06-02T07:11:11.015Z,6.90
2018-06-02T07:13:38.453Z,6.87
2018-06-02T07:16:06.636Z,7.20
2018-06-02T07:18:34.817Z,7.90
2018-06-02T07:21:02.999Z,6.90
2018-06-02T07:23:30.421Z,6.65
2018-06-02T07:25:57.833Z,6.45
2018-06-02T07:28:25.254Z,7.15
2018-06-02T07:30:52.713Z,6.60
2018-06-02T07:33:20.183Z,7.00
2018-06-02T07:35:47.599Z,7.45
2018-06-02T07:38:15.128Z,6.80
2018-06-02T07:40:42.584Z,7.40
2018-06-02T07:43:10.000Z,6.97
2018-06-02T07:45:37.430Z,7.22
2018-06-02T07:48:04.901Z,6.50
2018-06-02T07:50:33.068Z,6.50
2018-06-02T07:53:01.276Z,7.28
2018-06-02T07:55:28.745Z,6.55
2018-06-02T07:57:56.213Z,6.37
2018-06-02T08:00:23.621Z,6.47
2018-06-02T08:02:51.053Z,7.20
2018-06-02T08:05:18.517Z,7.90
2018-06-02T08:07:46.000Z,7.22
2018-06-02T08:10:13.466Z,7.25
2018-06-02T08:12:40.889Z,7.30
2018-06-02T08:15:09.836Z,7.45
2018-06-02T08:17:37.261Z,7.55
2018-06-02T08:20:04.673Z,9.10
2018-06-02T08:22:32.097Z,8.85
2018-06-02T08:24:59.613Z,7.60
2018-06-02T08:27:27.032Z,7.40
2018-06-02T08:29:54.549Z,8.35
2018-06-02T08:32:22.021Z,8.30
2018-06-02T08:34:49.498Z,7.75
2018-06-02T08:37:16.928Z,7.70
2018-06-02T08:39:44.341Z,6.47
2018-06-02T08:42:11.752Z,7.15
2018-06-02T08:44:39.236Z,7.68
2018-06-02T08:47:06.741Z,7.37
2018-06-02T08:49:34.213Z,6.87
2018-06-02T08:52:01.686Z,7.20
2018-06-02T08:54:29.221Z,7.47
2018-06-02T08:56:56.569Z,8.13
2018-06-02T08:59:23.980Z,8.35
2018-06-02T09:01:51.460Z,6.37
2018-06-02T09:04:18.882Z,7.50
2018-06-02T09:06:47.122Z,6.22
2018-06-02T09:09:14.529Z,6.97
2018-06-02T09:11:42.057Z,7.30
2018-06-02T09:14:09.529Z,6.45
2018-06-02T09:16:37.012Z,6.60
2018-06-02T09:19:04.475Z,5.87
2018-06-02T09:21:31.881Z,6.45
2018-06-02T09:23:59.305Z,7.18
2018-06-02T09:26:26.716Z,6.60
2018-06-02T09:28:54.138Z,7.03
2018-06-02T09:31:21.553Z,7.10
2018-06-02T09:33:48.981Z,6.43
2018-06-02T09:36:16.400Z,5.95
2018-06-02T09:38:43.853Z,5.68
2018-06-02T09:41:11.300Z,6.22
2018-06-02T09:43:39.486Z,5.37
2018-06-02T09:46:06.895Z,4.00
2018-06-02T09:48:34.309Z,5.18
2018-06-02T09:51:02.489Z,4.60
2018-06-02T09:53:30.689Z,4.90
2018-06-02T09:55:58.102Z,4.90
2018-06-02T09:58:25.534Z,5.20
2018-06-02T10:00:52.952Z,4.50
2018-06-02T10:03:20.374Z,4.68
2018-06-02T10:05:47.838Z,4.22
2018-06-02T10:08:15.261Z,5.15
2018-06-02T10:10:42.667Z,4.12
2018-06-02T10:13:10.093Z,4.00
2018-06-02T10:15:37.526Z,4.15
2018-06-02T10:18:04.945Z,3.85
2018-06-02T10:20:33.129Z,3.90
2018-06-02T10:23:00.556Z,3.90
2018-06-02T10:25:27.969Z,3.92
2018-06-02T10:27:55.487Z,3.60
2018-06-02T10:30:23.669Z,3.50
2018-06-02T10:32:51.143Z,4.57
2018-06-02T10:35:18.611Z,3.95
2018-06-02T10:37:46.187Z,4.05
2018-06-02T10:40:14.349Z,4.40
2018-06-02T10:42:42.664Z,3.90
2018-06-02T10:45:10.847Z,3.58
2018-06-02T10:47:38.310Z,3.80
2018-06-02T10:50:05.793Z,3.70
2018-06-02T10:52:33.197Z,4.05
2018-06-02T10:55:00.631Z,3.90
2018-06-02T10:57:28.101Z,5.37
2018-06-02T10:59:56.266Z,4.75
2018-06-02T11:02:24.474Z,3.62
2018-06-02T11:04:51.901Z,3.95
2018-06-02T11:07:19.305Z,4.65
2018-06-02T11:09:46.720Z,3.80
2018-06-02T11:12:14.136Z,3.80
2018-06-02T11:14:41.625Z,3.95
2018-06-02T11:17:09.016Z,3.90
2018-06-02T11:19:36.548Z,3.50
2018-06-02T11:22:04.613Z,4.20
2018-06-02T11:24:32.795Z,3.70
2018-06-02T11:27:00.214Z,3.53
2018-06-02T11:29:27.654Z,3.40
2018-06-02T11:31:55.820Z,3.65
2018-06-02T11:34:24.014Z,3.80
2018-06-02T11:36:52.198Z,3.42
2018-06-02T11:39:19.613Z,3.45
2018-06-02T11:41:47.028Z,3.55
2018-06-02T11:44:14.519Z,3.25
2018-06-02T11:46:42.698Z,3.12
2018-06-02T11:49:10.121Z,3.83
2018-06-02T11:51:37.541Z,3.60
2018-06-02T11:54:05.767Z,3.30
2018-06-02T11:56:33.178Z,3.47
2018-06-02T11:59:00.694Z,3.20
2018-06-02T12:01:28.860Z,2.12
2018-06-02T12:03:57.046Z,2.60
2018-06-02T12:06:25.249Z,2.50
2018-06-02T12:08:52.652Z,2.85
2018-06-02T12:11:20.094Z,2.53
2018-06-02T12:13:47.523Z,2.55
2018-06-02T12:16:14.932Z,3.28
2018-06-02T12:18:42.411Z,2.85
2018-06-02T12:21:09.872Z,2.60
2018-06-02T12:23:37.284Z,2.78
2018-06-02T12:26:04.698Z,2.72
2018-06-02T12:28:32.124Z,2.35
2018-06-02T12:30:59.533Z,3.00
2018-06-02T12:33:26.947Z,2.65
2018-06-02T12:35:54.364Z,2.70
2018-06-02T12:38:22.563Z,2.35
2018-06-02T12:40:49.983Z,2.72
2018-06-02T12:43:17.396Z,3.00
2018-06-02T12:45:44.933Z,2.40
2018-06-02T12:48:12.352Z,2.30
2018-06-02T12:50:39.781Z,2.35
2018-06-02T12:53:07.302Z,2.90
2018-06-02T12:55:34.708Z,2.85
2018-06-02T12:58:02.230Z,2.40
2018-06-02T13:00:29.640Z,2.53
2018-06-02T13:02:57.161Z,2.80
2018-06-02T13:05:24.578Z,2.40
2018-06-02T13:07:52.005Z,2.30
2018-06-02T13:10:19.481Z,2.10
2018-06-02T13:12:46.956Z,2.50
2018-06-02T13:15:14.369Z,3.30
2018-06-02T13:17:41.793Z,2.10
2018-06-02T13:20:09.210Z,2.10
2018-06-02T13:22:36.633Z,2.30
2018-06-02T13:25:04.045Z,2.42
2018-06-02T13:27:31.564Z,2.40
2018-06-02T13:29:58.984Z,1.90
2018-06-02T13:32:26.389Z,2.20
2018-06-02T13:34:53.814Z,4.12
2018-06-02T13:37:21.244Z,2.60
2018-06-02T13:39:49.412Z,2.40
2018-06-02T13:42:17.594Z,2.55
2018-06-02T13:44:45.781Z,5.22
2018-06-02T13:47:13.965Z,3.00
2018-06-02T13:49:42.157Z,2.30
2018-06-02T13:52:10.328Z,2.37
2018-06-02T13:54:37.895Z,2.03
2018-06-02T13:57:05.319Z,2.30
2018-06-02T13:59:32.777Z,2.10
2018-06-02T14:02:00.193Z,1.95
2018-06-02T14:04:27.719Z,2.50
2018-06-02T14:06:55.902Z,2.20
2018-06-02T14:09:23.328Z,2.33
2018-06-02T14:11:50.837Z,2.62
2018-06-02T14:14:18.264Z,2.10
2018-06-02T14:16:45.669Z,2.35
2018-06-02T14:19:13.085Z,2.30
2018-06-02T14:21:40.507Z,2.78
2018-06-02T14:24:08.701Z,3.10
2018-06-02T14:26:36.144Z,2.55
2018-06-02T14:29:03.541Z,2.67
2018-06-02T14:31:31.005Z,2.92
2018-06-02T14:33:58.485Z,2.60
2018-06-02T14:36:25.898Z,2.70
2018-06-02T14:38:53.329Z,2.58
2018-06-02T14:41:20.745Z,2.60
2018-06-02T14:43:48.171Z,2.35
2018-06-02T14:46:15.576Z,2.40
2018-06-02T14:48:43.093Z,2.03
2018-06-02T14:51:10.504Z,2.42
2018-06-02T14:53:37.925Z,2.70
2018-06-02T14:56:06.130Z,2.47
2018-06-02T14:58:33.545Z,2.42
2018-06-02T15:01:01.082Z,2.30
2018-06-02T15:03:28.534Z,2.40
2018-06-02T15:05:55.941Z,2.08
2018-06-02T15:08:23.378Z,2.17
2018-06-02T15:10:50.797Z,2.00
2018-06-02T15:13:18.217Z,2.25
2018-06-02T15:15:45.625Z,2.70
2018-06-02T15:18:13.050Z,2.25
2018-06-02T15:20:40.517Z,2.42
2018-06-02T15:23:07.994Z,2.35
2018-06-02T15:25:35.457Z,2.25
2018-06-02T15:28:02.877Z,2.42
2018-06-02T15:30:30.293Z,2.45
2018-06-02T15:32:57.773Z,2.40
2018-06-02T15:35:25.281Z,2.67
2018-06-02T15:37:52.686Z,1.90
2018-06-02T15:40:20.876Z,2.05
2018-06-02T15:42:49.050Z,2.35
2018-06-02T15:45:16.549Z,2.08
2018-06-02T15:47:43.960Z,2.37
2018-06-02T15:50:11.377Z,2.20
2018-06-02T15:52:39.560Z,2.28
2018-06-02T15:55:07.770Z,2.30
2018-06-02T15:57:35.181Z,2.58
2018-06-02T16:00:02.624Z,2.47
2018-06-02T16:02:30.036Z,2.50
2018-06-02T16:04:57.452Z,2.15
2018-06-02T16:07:24.920Z,2.30
2018-06-02T16:09:52.376Z,1.98
2018-06-02T16:12:19.792Z,2.50
2018-06-02T16:14:47.214Z,2.40
2018-06-02T16:17:14.620Z,2.55
2018-06-02T16:19:42.038Z,2.78
2018-06-02T16:22:10.252Z,2.65
2018-06-02T16:24:37.660Z,2.20
2018-06-02T16:27:05.077Z,2.08
2018-06-02T16:29:32.653Z,2.30
2018-06-02T16:32:00.065Z,2.55
2018-06-02T16:34:27.481Z,2.08
2018-06-02T16:36:55.662Z,2.65
2018-06-02T16:39:23.865Z,2.58
2018-06-02T16:41:51.338Z,2.80
2018-06-02T16:44:18.812Z,3.30
2018-06-02T16:46:46.229Z,3.80
2018-06-02T16:49:13.745Z,1.95
2018-06-02T16:51:41.328Z,3.10
2018-06-02T16:54:09.616Z,3.50
2018-06-02T16:56:37.024Z,2.28
2018-06-02T16:59:04.450Z,2.70
2018-06-02T17:01:31.860Z,2.80
2018-06-02T17:03:59.397Z,2.78
2018-06-02T17:06:27.559Z,3.17
2018-06-02T17:08:55.770Z,3.00
2018-06-02T17:11:23.224Z,2.78
2018-06-02T17:13:51.401Z,3.22
2018-06-02T17:16:19.609Z,3.30
2018-06-02T17:18:47.049Z,2.72
2018-06-02T17:21:14.453Z,2.90
2018-06-02T17:23:41.864Z,3.12
2018-06-02T17:26:09.292Z,3.00
2018-06-02T17:28:36.697Z,3.50
2018-06-02T17:31:04.120Z,3.00
2018-06-02T17:33:31.550Z,2.97
2018-06-02T17:35:58.952Z,3.05
2018-06-02T17:38:26.364Z,2.75
2018-06-02T17:40:53.782Z,3.15
2018-06-02T17:43:21.994Z,3.12
2018-06-02T17:45:49.408Z,2.30
2018-06-02T17:48:16.819Z,3.10
2018-06-02T17:50:44.257Z,3.03
2018-06-02T17:53:11.674Z,3.33
2018-06-02T17:55:39.093Z,3.00
2018-06-02T17:58:06.505Z,2.95
2018-06-02T18:00:33.976Z,3.00
2018-06-02T18:03:02.953Z,3.35
2018-06-02T18:05:31.157Z,3.97
2018-06-02T18:07:58.633Z,2.75
2018-06-02T18:10:26.052Z,2.95
2018-06-02T18:12:53.461Z,2.95
2018-06-02T18:15:20.896Z,2.53
2018-06-02T18:17:48.412Z,3.25
2018-06-02T18:20:15.887Z,3.10
2018-06-02T18:22:43.302Z,3.20
2018-06-02T18:25:10.726Z,2.75
2018-06-02T18:27:38.149Z,2.58
2018-06-02T18:30:05.596Z,3.20
2018-06-02T18:32:33.022Z,3.35
2018-06-02T18:35:00.501Z,3.10
2018-06-02T18:37:27.981Z,3.47
2018-06-02T18:39:55.413Z,3.35
2018-06-02T18:42:22.908Z,3.40
2018-06-02T18:44:50.325Z,3.03
2018-06-02T18:47:17.754Z,3.25
2018-06-02T18:49:45.327Z,3.58
2018-06-02T18:52:13.615Z,3.30
2018-06-02T18:54:41.028Z,3.85
2018-06-02T18:57:08.454Z,3.40
2018-06-02T18:59:35.865Z,3.90
2018-06-02T19:02:03.293Z,3.30
2018-06-02T19:04:31.477Z,3.92
2018-06-02T19:06:58.941Z,3.45
2018-06-02T19:09:26.413Z,3.97
2018-06-02T19:11:53.885Z,3.87
2018-06-02T19:14:21.348Z,4.22
2018-06-02T19:16:48.765Z,4.32
2018-06-02T19:19:16.185Z,4.25
2018-06-02T19:21:43.601Z,4.30
2018-06-02T19:24:11.293Z,3.67
2018-06-02T19:26:38.700Z,4.43
2018-06-02T19:29:06.121Z,3.40
2018-06-02T19:31:33.544Z,4.15
2018-06-02T19:34:01.018Z,4.65
2018-06-02T19:36:28.481Z,4.30
2018-06-02T19:38:55.963Z,4.15
2018-06-02T19:41:23.368Z,4.15
2018-06-02T19:43:50.800Z,4.37
2018-06-02T19:46:18.216Z,4.87
2018-06-02T19:48:45.732Z,4.28
2018-06-02T19:51:13.316Z,5.12
2018-06-02T19:53:41.472Z,5.30
2018-06-02T19:56:09.686Z,6.03
2018-06-02T19:58:37.095Z,5.40
2018-06-02T20:01:04.529Z,5.55
2018-06-02T20:03:31.985Z,5.30
2018-06-02T20:05:59.401Z,5.40
2018-06-02T20:08:26.935Z,5.50
2018-06-02T20:10:55.101Z,5.25
2018-06-02T20:13:23.307Z,4.65
2018-06-02T20:15:50.729Z,5.20
2018-06-02T20:18:18.250Z,6.20
2018-06-02T20:20:45.717Z,5.80
2018-06-02T20:23:13.133Z,5.37
2018-06-02T20:25:40.552Z,6.25
2018-06-02T20:28:07.965Z,4.93
2018-06-02T20:30:35.603Z,5.07
2018-06-02T20:33:03.892Z,4.80
2018-06-02T20:35:32.062Z,5.10
2018-06-02T20:37:59.536Z,5.40
2018-06-02T20:40:27.022Z,5.90
2018-06-02T20:42:54.434Z,5.12
2018-06-02T20:45:21.848Z,5.70
2018-06-02T20:47:49.261Z,5.45
2018-06-02T20:50:16.690Z,5.22
2018-06-02T20:52:44.100Z,5.62
2018-06-02T20:55:11.632Z,6.05
2018-06-02T20:57:39.056Z,5.37
2018-06-02T21:00:06.472Z,5.72
2018-06-02T21:02:33.887Z,5.18
2018-06-02T21:05:01.309Z,5.35
2018-06-02T21:07:28.733Z,5.80
2018-06-02T21:09:56.249Z,5.70
2018-06-02T21:12:23.686Z,5.05
2018-06-02T21:14:51.202Z,5.40
2018-06-02T21:17:18.614Z,5.25
2018-06-02T21:19:46.029Z,5.45
2018-06-02T21:22:13.440Z,5.78
2018-06-02T21:24:40.859Z,5.45
2018-06-02T21:27:08.341Z,4.85
2018-06-02T21:29:35.805Z,5.05
2018-06-02T21:32:03.221Z,5.57
2018-06-02T21:34:30.628Z,5.95
2018-06-02T21:36:58.813Z,5.47
2018-06-02T21:39:26.997Z,5.47
2018-06-02T21:41:55.181Z,5.87
2018-06-02T21:44:23.365Z,6.70
2018-06-02T21:46:51.557Z,6.03
2018-06-02T21:49:19.749Z,6.75
2018-06-02T21:51:47.948Z,5.57
2018-06-02T21:54:15.416Z,6.03
2018-06-02T21:56:42.897Z,6.10
2018-06-02T21:59:11.077Z,6.00
2018-06-02T22:01:38.501Z,5.78
2018-06-02T22:04:05.923Z,5.62
2018-06-02T22:06:33.389Z,5.85
2018-06-02T22:09:00.796Z,5.72
2018-06-02T22:11:28.217Z,5.60
2018-06-02T22:13:55.633Z,5.65
2018-06-02T22:16:23.052Z,5.60
2018-06-02T22:18:51.233Z,6.25
2018-06-02T22:21:19.417Z,5.37
2018-06-02T22:23:47.640Z,5.35
2018-06-02T22:26:15.051Z,5.80
2018-06-02T22:28:42.461Z,5.60
2018-06-02T22:31:09.893Z,5.97
2018-06-02T22:33:38.069Z,5.15
2018-06-02T22:36:05.490Z,6.32
2018-06-02T22:38:32.904Z,6.20
2018-06-02T22:41:00.547Z,5.78
2018-06-02T22:43:27.964Z,6.03
2018-06-02T22:45:55.463Z,5.55
2018-06-02T22:48:22.882Z,5.72
2018-06-02T22:50:50.313Z,5.93
2018-06-02T22:53:17.810Z,6.05
2018-06-02T22:55:45.237Z,6.05
2018-06-02T22:58:13.433Z,5.90
2018-06-02T23:00:40.844Z,6.05
2018-06-02T23:03:08.271Z,6.87
2018-06-02T23:05:36.437Z,6.25
2018-06-02T23:08:04.635Z,6.65
2018-06-02T23:10:32.932Z,6.30
2018-06-02T23:13:00.356Z,7.10
2018-06-02T23:15:27.771Z,6.35
2018-06-02T23:17:55.251Z,5.70
2018-06-02T23:20:22.668Z,6.93
2018-06-02T23:22:50.089Z,6.90
2018-06-02T23:25:17.506Z,5.80
2018-06-02T23:27:44.926Z,5.75
2018-06-02T23:30:12.328Z,6.37
2018-06-02T23:32:39.775Z,6.32
2018-06-02T23:35:07.173Z,5.85
2018-06-02T23:37:34.684Z,6.37
2018-06-02T23:40:02.863Z,5.93
2018-06-02T23:42:31.047Z,5.80
2018-06-02T23:44:59.252Z,6.30
2018-06-02T23:47:26.730Z,6.70
2018-06-02T23:49:54.146Z,7.07
2018-06-02T23:52:21.574Z,6.12
2018-06-02T23:54:48.989Z,6.53
2018-06-02T23:57:16.521Z,6.10
2018-06-02T23:59:43.942Z,6.00
